createdAt,value
2019-02-17T00:00:29.648Z,5.70
2019-02-17T00:02:58.285Z,5.70
2019-02-17T00:05:27.037Z,5.60
2019-02-17T00:07:56.008Z,5.60
2019-02-17T00:10:24.795Z,5.70
2019-02-17T00:12:53.844Z,5.80
2019-02-17T00:15:22.675Z,5.70
2019-02-17T00:17:51.569Z,5.80
2019-02-17T00:20:20.555Z,5.80
2019-02-17T00:22:49.243Z,5.80
2019-02-17T00:25:20.322Z,5.70
2019-02-17T00:27:48.657Z,5.60
2019-02-17T00:30:17.834Z,5.60
2019-02-17T00:32:46.537Z,5.60
2019-02-17T00:35:15.099Z,5.50
2019-02-17T00:37:43.911Z,5.40
2019-02-17T00:40:12.648Z,5.30
2019-02-17T00:42:41.237Z,5.30
2019-02-17T00:45:10.194Z,5.30
2019-02-17T00:47:38.848Z,5.30
2019-02-17T00:50:08.933Z,5.40
2019-02-17T00:52:37.650Z,5.40
2019-02-17T00:55:07.600Z,5.30
2019-02-17T00:57:36.734Z,5.20
2019-02-17T01:00:08.679Z,5.10
2019-02-17T01:02:37.368Z,5.10
2019-02-17T01:05:07.422Z,5.00
2019-02-17T01:07:36.318Z,4.90
2019-02-17T01:10:06.906Z,4.90
2019-02-17T01:12:35.594Z,5.00
2019-02-17T01:15:06.327Z,5.00
2019-02-17T01:17:35.328Z,5.10
2019-02-17T01:20:05.886Z,5.10
2019-02-17T01:22:34.975Z,5.00
2019-02-17T01:25:04.480Z,5.10
2019-02-17T01:27:33.218Z,5.20
2019-02-17T01:30:01.903Z,5.10
2019-02-17T01:32:30.576Z,5.10
2019-02-17T01:34:59.418Z,5.20
2019-02-17T01:37:28.208Z,5.20
2019-02-17T01:39:57.276Z,5.10
2019-02-17T01:42:25.955Z,5.20
2019-02-17T01:44:54.627Z,5.20
2019-02-17T01:47:23.334Z,5.20
2019-02-17T01:49:52.035Z,5.30
2019-02-17T01:52:20.720Z,5.40
2019-02-17T01:54:49.261Z,5.40
2019-02-17T01:57:18.396Z,5.40
2019-02-17T01:59:47.035Z,5.30
2019-02-17T02:02:15.722Z,5.40
2019-02-17T02:04:44.350Z,5.40
2019-02-17T02:07:13.237Z,5.30
2019-02-17T02:09:41.769Z,5.30
2019-02-17T02:12:10.466Z,5.40
2019-02-17T02:14:39.142Z,5.40
2019-02-17T02:17:07.841Z,5.40
2019-02-17T02:19:36.722Z,5.40
2019-02-17T02:22:05.647Z,5.40
2019-02-17T02:24:34.333Z,5.30
2019-02-17T02:27:02.961Z,5.30
2019-02-17T02:29:40.765Z,5.30
2019-02-17T02:32:02.536Z,5.30
2019-02-17T02:34:31.182Z,5.20
2019-02-17T02:36:59.867Z,5.20
2019-02-17T02:39:28.537Z,5.20
2019-02-17T02:41:57.132Z,5.10
2019-02-17T02:44:25.864Z,5.00
2019-02-17T02:46:54.540Z,5.00
2019-02-17T02:49:23.411Z,4.90
2019-02-17T02:51:52.539Z,4.90
2019-02-17T02:54:21.121Z,4.90
2019-02-17T02:56:50.304Z,4.90
2019-02-17T02:59:18.986Z,4.80
2019-02-17T03:01:48.167Z,4.90
2019-02-17T03:04:16.822Z,4.80
2019-02-17T03:06:50.138Z,4.80
2019-02-17T03:09:18.908Z,4.70
2019-02-17T03:11:48.037Z,4.70
2019-02-17T03:14:18.137Z,4.80
2019-02-17T03:16:46.797Z,4.90
2019-02-17T03:19:15.524Z,4.90
2019-02-17T03:21:44.584Z,4.80
2019-02-17T03:24:13.195Z,4.70
2019-02-17T03:26:44.075Z,4.70
2019-02-17T03:29:14.362Z,4.70
2019-02-17T03:31:44.808Z,4.70
2019-02-17T03:34:13.533Z,4.80
2019-02-17T03:36:42.565Z,4.70
2019-02-17T03:39:11.306Z,4.70
2019-02-17T03:41:40.013Z,4.70
2019-02-17T03:44:09.125Z,4.70
2019-02-17T03:46:38.118Z,4.80
2019-02-17T03:49:06.920Z,4.70
2019-02-17T03:51:35.591Z,4.70
2019-02-17T03:54:04.738Z,4.70
2019-02-17T03:56:33.762Z,4.70
2019-02-17T03:59:02.928Z,4.70
2019-02-17T04:01:31.542Z,4.70
2019-02-17T04:04:00.200Z,4.70
2019-02-17T04:06:29.086Z,4.60
2019-02-17T04:08:58.125Z,4.60
2019-02-17T04:11:26.860Z,4.60
2019-02-17T04:13:55.493Z,4.60
2019-02-17T04:16:24.095Z,4.50
2019-02-17T04:18:52.760Z,4.50
2019-02-17T04:21:21.815Z,4.50
2019-02-17T04:23:50.635Z,4.50
2019-02-17T04:26:19.422Z,4.50
2019-02-17T04:28:48.104Z,4.60
2019-02-17T04:31:17.078Z,4.80
2019-02-17T04:33:45.709Z,4.80
2019-02-17T04:36:14.367Z,4.80
2019-02-17T04:38:43.150Z,4.90
2019-02-17T04:41:11.791Z,4.80
2019-02-17T04:43:40.401Z,4.90
2019-02-17T04:46:09.158Z,4.80
2019-02-17T04:48:37.844Z,4.80
2019-02-17T04:51:06.494Z,4.80
2019-02-17T04:53:35.268Z,4.80
2019-02-17T04:56:05.645Z,4.80
2019-02-17T04:58:34.255Z,4.80
2019-02-17T05:01:03.006Z,4.70
2019-02-17T05:03:31.736Z,4.70
2019-02-17T05:06:00.784Z,4.70
2019-02-17T05:08:30.289Z,4.80
2019-02-17T05:10:58.905Z,4.70
2019-02-17T05:13:27.966Z,4.70
2019-02-17T05:15:58.503Z,4.70
2019-02-17T05:18:26.948Z,4.70
2019-02-17T05:20:55.554Z,4.70
2019-02-17T05:23:24.161Z,4.60
2019-02-17T05:25:52.862Z,4.90
2019-02-17T05:28:21.549Z,4.70
2019-02-17T05:30:53.210Z,4.60
2019-02-17T05:33:20.514Z,4.60
2019-02-17T05:35:49.188Z,4.60
2019-02-17T05:38:17.929Z,4.60
2019-02-17T05:40:46.519Z,4.50
2019-02-17T05:43:15.189Z,4.60
2019-02-17T05:45:43.931Z,4.60
2019-02-17T05:48:12.589Z,4.60
2019-02-17T05:50:41.313Z,4.60
2019-02-17T05:53:10.072Z,4.60
2019-02-17T05:55:38.760Z,4.60
2019-02-17T05:58:07.459Z,4.60
2019-02-17T06:00:36.798Z,4.60
2019-02-17T06:03:05.422Z,4.60
2019-02-17T06:05:34.105Z,4.60
2019-02-17T06:08:02.807Z,4.50
2019-02-17T06:10:31.557Z,4.50
2019-02-17T06:13:00.286Z,4.50
2019-02-17T06:15:28.894Z,4.50
2019-02-17T06:17:57.895Z,4.50
2019-02-17T06:20:26.484Z,4.50
2019-02-17T06:22:55.072Z,4.40
2019-02-17T06:25:23.745Z,4.50
2019-02-17T06:27:52.531Z,4.50
2019-02-17T06:30:21.404Z,4.50
2019-02-17T06:32:50.104Z,4.50
2019-02-17T06:35:18.743Z,4.60
2019-02-17T06:37:47.678Z,4.60
2019-02-17T06:40:16.434Z,4.50
2019-02-17T06:42:45.106Z,4.50
2019-02-17T06:45:14.243Z,4.50
2019-02-17T06:47:43.440Z,4.50
2019-02-17T06:50:12.124Z,4.40
2019-02-17T06:52:40.735Z,4.40
2019-02-17T06:55:27.796Z,4.40
2019-02-17T06:57:56.669Z,4.40
2019-02-17T07:00:26.931Z,4.40
2019-02-17T07:02:55.731Z,4.50
2019-02-17T07:05:31.579Z,4.50
2019-02-17T07:08:00.664Z,4.60
2019-02-17T07:10:29.534Z,4.60
2019-02-17T07:12:58.532Z,4.70
2019-02-17T07:15:27.197Z,4.70
2019-02-17T07:17:55.918Z,4.80
2019-02-17T07:20:24.555Z,4.90
2019-02-17T07:22:53.248Z,5.00
2019-02-17T07:25:29.572Z,5.10
2019-02-17T07:27:52.552Z,5.30
2019-02-17T07:30:21.133Z,5.50
2019-02-17T07:32:49.815Z,5.70
2019-02-17T07:35:18.447Z,5.80
2019-02-17T07:37:47.001Z,5.90
2019-02-17T07:40:15.713Z,6.10
2019-02-17T07:42:44.364Z,6.20
2019-02-17T07:45:13.238Z,6.30
2019-02-17T07:47:42.379Z,6.40
2019-02-17T07:50:11.885Z,6.60
2019-02-17T07:52:40.626Z,6.70
2019-02-17T07:55:10.789Z,6.70
2019-02-17T07:57:39.863Z,6.70
2019-02-17T08:00:14.812Z,6.70
2019-02-17T08:02:43.372Z,6.80
2019-02-17T08:05:12.478Z,6.80
2019-02-17T08:07:41.274Z,6.80
2019-02-17T08:10:10.574Z,6.80
2019-02-17T08:12:39.261Z,6.90
2019-02-17T08:15:10.214Z,7.00
2019-02-17T08:17:38.865Z,7.00
2019-02-17T08:20:10.003Z,7.10
2019-02-17T08:22:38.763Z,7.30
2019-02-17T08:25:09.010Z,7.50
2019-02-17T08:27:37.666Z,7.70
2019-02-17T08:30:09.571Z,7.90
2019-02-17T08:32:38.560Z,7.90
2019-02-17T08:35:09.140Z,7.90
2019-02-17T08:37:37.917Z,8.00
2019-02-17T08:40:09.363Z,8.20
2019-02-17T08:42:38.523Z,8.30
2019-02-17T08:45:09.124Z,8.70
2019-02-17T08:47:37.791Z,8.90
2019-02-17T08:50:12.820Z,9.30
2019-02-17T08:52:41.476Z,9.30
2019-02-17T08:55:11.365Z,9.50
2019-02-17T08:57:39.948Z,9.60
2019-02-17T09:00:13.706Z,9.70
2019-02-17T09:02:45.202Z,9.70
2019-02-17T09:05:13.989Z,10.20
2019-02-17T09:07:42.774Z,9.80
2019-02-17T09:10:12.669Z,9.80
2019-02-17T09:12:41.442Z,10.10
2019-02-17T09:15:11.915Z,10.20
2019-02-17T09:17:40.662Z,10.20
2019-02-17T09:20:11.306Z,10.30
2019-02-17T09:22:39.970Z,10.50
2019-02-17T09:25:11.902Z,10.50
2019-02-17T09:27:40.774Z,10.70
2019-02-17T09:30:15.059Z,11.10
2019-02-17T09:32:43.728Z,11.60
2019-02-17T09:35:13.019Z,11.80
2019-02-17T09:37:42.565Z,11.60
2019-02-17T09:40:12.730Z,11.90
2019-02-17T09:42:41.663Z,12.00
2019-02-17T09:45:15.124Z,12.40
2019-02-17T09:47:43.952Z,12.40
2019-02-17T09:50:14.033Z,12.90
2019-02-17T09:52:42.852Z,13.70
2019-02-17T09:55:12.111Z,13.80
2019-02-17T09:57:41.348Z,13.70
2019-02-17T10:00:17.095Z,13.00
2019-02-17T10:02:45.957Z,12.40
2019-02-17T10:05:15.038Z,12.10
2019-02-17T10:07:43.720Z,12.40
2019-02-17T10:10:15.109Z,12.20
2019-02-17T10:12:43.897Z,11.80
2019-02-17T10:15:13.752Z,11.80
2019-02-17T10:17:42.449Z,11.70
2019-02-17T10:20:13.410Z,11.90
2019-02-17T10:22:42.175Z,11.90
2019-02-17T10:25:10.901Z,12.10
2019-02-17T10:27:41.491Z,12.40
2019-02-17T10:30:13.354Z,12.20
2019-02-17T10:32:42.469Z,12.00
2019-02-17T10:35:11.228Z,12.30
2019-02-17T10:37:40.018Z,12.40
2019-02-17T10:40:11.919Z,12.40
2019-02-17T10:42:40.598Z,12.50
2019-02-17T10:45:10.601Z,12.30
2019-02-17T10:47:39.302Z,12.20
2019-02-17T10:50:10.444Z,12.30
2019-02-17T10:52:39.116Z,12.40
2019-02-17T10:55:10.741Z,12.40
2019-02-17T10:57:39.568Z,12.20
2019-02-17T11:00:14.405Z,12.20
2019-02-17T11:02:47.238Z,12.40
2019-02-17T11:05:13.787Z,12.40
2019-02-17T11:07:42.761Z,12.40
2019-02-17T11:10:12.691Z,12.50
2019-02-17T11:12:41.870Z,12.40
2019-02-17T11:15:16.817Z,12.60
2019-02-17T11:17:45.419Z,12.60
2019-02-17T11:20:14.321Z,12.60
2019-02-17T11:22:43.211Z,12.80
2019-02-17T11:25:11.960Z,12.70
2019-02-17T11:27:40.872Z,12.70
2019-02-17T11:30:20.279Z,12.80
2019-02-17T11:32:57.561Z,12.90
2019-02-17T11:35:19.639Z,13.00
2019-02-17T11:37:48.632Z,13.30
2019-02-17T11:40:17.258Z,13.20
2019-02-17T11:42:46.204Z,13.10
2019-02-17T11:45:17.296Z,13.40
2019-02-17T11:47:46.192Z,13.40
2019-02-17T11:50:15.734Z,13.40
2019-02-17T11:52:44.747Z,13.60
2019-02-17T11:55:15.118Z,13.60
2019-02-17T11:57:44.003Z,13.60
2019-02-17T12:00:15.817Z,13.60
2019-02-17T12:02:44.643Z,13.70
2019-02-17T12:05:13.983Z,14.00
2019-02-17T12:07:42.771Z,14.10
2019-02-17T12:10:11.967Z,14.00
2019-02-17T12:12:40.973Z,14.00
2019-02-17T12:15:11.677Z,14.10
2019-02-17T12:17:40.442Z,14.20
2019-02-17T12:20:19.712Z,14.20
2019-02-17T12:22:50.442Z,14.20
2019-02-17T12:25:21.232Z,14.30
2019-02-17T12:27:51.543Z,14.30
2019-02-17T12:30:20.342Z,14.40
2019-02-17T12:32:49.025Z,14.50
2019-02-17T12:35:17.817Z,14.40
2019-02-17T12:37:47.439Z,14.40
2019-02-17T12:40:16.434Z,14.50
2019-02-17T12:42:45.241Z,14.60
2019-02-17T12:45:17.989Z,14.60
2019-02-17T12:47:45.747Z,14.70
2019-02-17T12:50:14.541Z,14.80
2019-02-17T12:52:47.127Z,14.70
2019-02-17T12:55:13.657Z,14.70
2019-02-17T12:57:42.324Z,14.80
2019-02-17T13:00:16.513Z,14.90
2019-02-17T13:02:45.468Z,14.80
2019-02-17T13:05:14.363Z,14.90
2019-02-17T13:07:43.144Z,15.00
2019-02-17T13:10:12.326Z,15.00
2019-02-17T13:12:41.104Z,15.00
2019-02-17T13:15:13.602Z,15.00
2019-02-17T13:17:42.198Z,14.90
2019-02-17T13:20:12.662Z,14.90
2019-02-17T13:22:41.351Z,14.90
2019-02-17T13:25:15.468Z,15.20
2019-02-17T13:27:44.202Z,15.30
2019-02-17T13:30:18.591Z,15.20
2019-02-17T13:32:47.397Z,15.10
2019-02-17T13:35:15.980Z,15.30
2019-02-17T13:37:44.725Z,15.40
2019-02-17T13:40:14.230Z,15.40
2019-02-17T13:42:43.083Z,15.40
2019-02-17T13:45:13.583Z,15.50
2019-02-17T13:47:42.236Z,15.60
2019-02-17T13:50:13.412Z,15.50
2019-02-17T13:52:42.159Z,15.50
2019-02-17T13:55:11.766Z,15.50
2019-02-17T13:57:40.696Z,15.70
2019-02-17T14:00:12.609Z,15.70
2019-02-17T14:02:41.313Z,15.70
2019-02-17T14:05:10.233Z,15.60
2019-02-17T14:07:39.322Z,15.70
2019-02-17T14:10:12.434Z,15.90
2019-02-17T14:12:41.155Z,15.90
2019-02-17T14:15:16.893Z,15.80
2019-02-17T14:17:45.896Z,15.80
2019-02-17T14:20:15.034Z,15.90
2019-02-17T14:22:43.893Z,16.00
2019-02-17T14:25:12.709Z,16.00
2019-02-17T14:27:41.453Z,16.10
2019-02-17T14:30:12.491Z,16.10
2019-02-17T14:32:41.322Z,16.10
2019-02-17T14:35:10.212Z,16.10
2019-02-17T14:37:38.957Z,16.10
2019-02-17T14:40:13.726Z,16.20
2019-02-17T14:42:42.612Z,16.20
2019-02-17T14:45:16.147Z,16.20
2019-02-17T14:47:44.900Z,16.10
2019-02-17T14:50:14.286Z,16.20
2019-02-17T14:52:43.393Z,16.10
2019-02-17T14:55:13.284Z,16.10
2019-02-17T14:57:42.045Z,16.20
2019-02-17T15:00:13.108Z,16.30
2019-02-17T15:02:41.819Z,16.50
2019-02-17T15:05:11.683Z,16.60
2019-02-17T15:07:40.825Z,16.60
2019-02-17T15:10:14.218Z,16.40
2019-02-17T15:12:43.004Z,16.40
2019-02-17T15:15:14.762Z,16.30
2019-02-17T15:17:44.060Z,16.30
2019-02-17T15:20:24.519Z,16.20
2019-02-17T15:22:53.613Z,16.20
2019-02-17T15:25:22.413Z,16.20
2019-02-17T15:27:51.148Z,16.10
2019-02-17T15:30:20.266Z,16.10
2019-02-17T15:32:48.965Z,16.00
2019-02-17T15:35:18.043Z,16.00
2019-02-17T15:37:47.415Z,16.00
2019-02-17T15:40:16.554Z,16.00
2019-02-17T15:42:45.821Z,15.90
2019-02-17T15:45:15.156Z,15.90
2019-02-17T15:47:43.895Z,15.90
2019-02-17T15:50:13.962Z,15.80
2019-02-17T15:52:44.423Z,15.70
2019-02-17T15:55:14.268Z,15.70
2019-02-17T15:57:43.017Z,15.60
2019-02-17T16:00:19.328Z,15.60
2019-02-17T16:02:48.149Z,15.50
2019-02-17T16:05:17.310Z,15.40
2019-02-17T16:07:45.996Z,15.30
2019-02-17T16:10:16.425Z,15.10
2019-02-17T16:12:45.530Z,15.00
2019-02-17T16:15:23.125Z,15.00
2019-02-17T16:17:51.761Z,14.80
2019-02-17T16:20:20.389Z,14.60
2019-02-17T16:22:49.261Z,14.60
2019-02-17T16:25:18.431Z,14.50
2019-02-17T16:27:47.161Z,14.50
2019-02-17T16:30:17.078Z,14.60
2019-02-17T16:32:47.303Z,14.60
2019-02-17T16:35:15.997Z,14.60
2019-02-17T16:37:44.774Z,14.50
2019-02-17T16:40:15.167Z,14.50
2019-02-17T16:42:44.158Z,14.50
2019-02-17T16:45:14.235Z,14.30
2019-02-17T16:47:44.077Z,14.10
2019-02-17T16:50:26.494Z,14.10
2019-02-17T16:52:55.198Z,14.10
2019-02-17T16:55:23.815Z,13.90
2019-02-17T16:57:52.521Z,13.80
2019-02-17T17:00:26.684Z,13.70
2019-02-17T17:02:56.368Z,13.60
2019-02-17T17:05:25.808Z,13.50
2019-02-17T17:07:54.735Z,13.40
2019-02-17T17:10:23.672Z,13.20
2019-02-17T17:12:52.454Z,13.30
2019-02-17T17:15:21.311Z,13.30
2019-02-17T17:17:50.137Z,13.20
2019-02-17T17:20:20.855Z,13.00
2019-02-17T17:22:49.650Z,13.10
2019-02-17T17:25:19.154Z,12.90
2019-02-17T17:27:48.089Z,12.80
2019-02-17T17:30:17.958Z,12.80
2019-02-17T17:32:46.846Z,12.80
2019-02-17T17:35:17.257Z,12.80
2019-02-17T17:37:45.992Z,12.80
2019-02-17T17:40:18.367Z,12.70
2019-02-17T17:42:47.218Z,12.70
2019-02-17T17:45:20.189Z,12.50
2019-02-17T17:47:49.246Z,12.50
2019-02-17T17:50:18.372Z,12.50
2019-02-17T17:52:47.059Z,12.30
2019-02-17T17:55:16.782Z,12.30
2019-02-17T17:57:45.540Z,12.20
2019-02-17T18:00:31.001Z,12.10
2019-02-17T18:02:59.832Z,12.00
2019-02-17T18:05:28.445Z,11.90
2019-02-17T18:07:57.201Z,11.70
2019-02-17T18:10:25.885Z,11.70
2019-02-17T18:12:54.498Z,11.60
2019-02-17T18:15:23.201Z,11.60
2019-02-17T18:17:54.893Z,11.50
2019-02-17T18:20:22.364Z,11.50
2019-02-17T18:22:51.559Z,11.40
2019-02-17T18:25:20.533Z,11.20
2019-02-17T18:27:49.291Z,11.10
2019-02-17T18:30:19.523Z,11.20
2019-02-17T18:32:48.288Z,11.00
2019-02-17T18:35:20.308Z,11.00
2019-02-17T18:37:47.458Z,11.00
2019-02-17T18:40:18.198Z,10.90
2019-02-17T18:42:46.973Z,10.80
2019-02-17T18:45:16.485Z,10.80
2019-02-17T18:47:46.311Z,10.80
2019-02-17T18:50:16.175Z,10.70
2019-02-17T18:52:44.853Z,10.70
2019-02-17T18:55:14.495Z,10.60
2019-02-17T18:57:50.210Z,10.60
2019-02-17T19:00:21.795Z,10.60
2019-02-17T19:02:50.455Z,10.50
2019-02-17T19:05:20.295Z,10.40
2019-02-17T19:07:49.562Z,10.30
2019-02-17T19:10:18.316Z,10.20
2019-02-17T19:12:47.058Z,10.20
2019-02-17T19:15:17.860Z,10.10
2019-02-17T19:17:46.990Z,10.00
2019-02-17T19:20:21.670Z,9.90
2019-02-17T19:22:50.689Z,9.90
2019-02-17T19:25:19.301Z,9.80
2019-02-17T19:27:47.994Z,9.90
2019-02-17T19:30:16.711Z,9.80
2019-02-17T19:32:45.528Z,9.70
2019-02-17T19:35:15.707Z,9.60
2019-02-17T19:37:44.382Z,9.60
2019-02-17T19:40:14.220Z,9.60
2019-02-17T19:42:43.005Z,9.50
2019-02-17T19:45:16.422Z,9.40
2019-02-17T19:47:45.151Z,9.40
2019-02-17T19:50:17.659Z,9.40
2019-02-17T19:52:46.391Z,9.40
2019-02-17T19:55:16.000Z,9.40
2019-02-17T19:57:44.778Z,9.40
2019-02-17T20:00:21.582Z,9.40
2019-02-17T20:02:52.360Z,9.30
2019-02-17T20:05:23.222Z,9.30
2019-02-17T20:07:52.905Z,9.40
2019-02-17T20:10:21.781Z,9.20
2019-02-17T20:12:50.460Z,9.30
2019-02-17T20:15:20.051Z,9.20
2019-02-17T20:17:49.204Z,9.00
2019-02-17T20:20:17.829Z,8.90
2019-02-17T20:22:46.551Z,8.90
2019-02-17T20:25:15.316Z,8.80
2019-02-17T20:27:43.941Z,8.80
2019-02-17T20:30:14.371Z,8.80
2019-02-17T20:32:43.012Z,8.80
2019-02-17T20:35:11.843Z,8.60
2019-02-17T20:37:41.146Z,8.60
2019-02-17T20:40:15.455Z,8.70
2019-02-17T20:42:44.018Z,8.80
2019-02-17T20:45:13.444Z,8.60
2019-02-17T20:47:42.177Z,8.50
2019-02-17T20:50:18.335Z,8.40
2019-02-17T20:52:47.171Z,8.50
2019-02-17T20:55:16.250Z,8.40
2019-02-17T20:57:44.959Z,8.30
2019-02-17T21:00:15.382Z,8.20
2019-02-17T21:02:44.011Z,8.20
2019-02-17T21:07:50.221Z,8.10
2019-02-17T21:10:19.019Z,8.00
2019-02-17T21:12:47.910Z,7.90
2019-02-17T21:15:18.718Z,7.90
2019-02-17T21:17:47.636Z,7.90
2019-02-17T21:20:17.789Z,7.90
2019-02-17T21:22:46.595Z,7.80
2019-02-17T21:25:15.426Z,7.80
2019-02-17T21:27:44.105Z,7.80
2019-02-17T21:30:15.206Z,7.90
2019-02-17T21:32:44.246Z,7.90
2019-02-17T21:35:15.511Z,7.90
2019-02-17T21:37:44.789Z,7.90
2019-02-17T21:40:14.247Z,7.90
2019-02-17T21:42:43.490Z,7.90
2019-02-17T21:45:16.051Z,7.80
2019-02-17T21:47:44.965Z,7.80
2019-02-17T21:50:14.434Z,7.80
2019-02-17T21:52:43.186Z,7.70
2019-02-17T21:55:13.502Z,7.60
2019-02-17T21:57:42.460Z,7.50
2019-02-17T22:00:31.874Z,7.50
2019-02-17T22:03:00.713Z,7.60
2019-02-17T22:05:29.457Z,7.60
2019-02-17T22:07:58.286Z,7.40
2019-02-17T22:10:27.477Z,7.50
2019-02-17T22:12:56.172Z,7.40
2019-02-17T22:15:25.247Z,7.30
2019-02-17T22:17:54.234Z,7.40
2019-02-17T22:20:22.892Z,7.40
2019-02-17T22:22:51.781Z,7.30
2019-02-17T22:25:20.941Z,7.30
2019-02-17T22:27:49.825Z,7.40
2019-02-17T22:30:19.005Z,7.30
2019-02-17T22:32:47.794Z,7.30
2019-02-17T22:35:16.887Z,7.20
2019-02-17T22:37:45.867Z,7.30
2019-02-17T22:40:15.781Z,7.30
2019-02-17T22:42:44.987Z,7.20
2019-02-17T22:45:13.938Z,7.10
2019-02-17T22:47:42.661Z,7.00
2019-02-17T22:50:13.043Z,7.10
2019-02-17T22:52:41.833Z,7.00
2019-02-17T22:55:11.854Z,6.90
2019-02-17T22:57:41.091Z,7.00
2019-02-17T23:00:16.080Z,6.90
2019-02-17T23:02:44.808Z,6.90
2019-02-17T23:05:13.695Z,6.80
2019-02-17T23:07:42.378Z,6.70
2019-02-17T23:10:11.338Z,6.70
2019-02-17T23:12:41.432Z,6.70
2019-02-17T23:15:10.776Z,6.60
2019-02-17T23:17:39.677Z,6.60
2019-02-17T23:20:08.922Z,6.60
2019-02-17T23:22:37.866Z,6.60
2019-02-17T23:25:08.820Z,6.60
2019-02-17T23:27:37.485Z,6.60
2019-02-17T23:30:11.168Z,6.50
2019-02-17T23:32:40.236Z,6.60
2019-02-17T23:35:09.185Z,6.50
2019-02-17T23:37:37.957Z,6.40
2019-02-17T23:40:10.976Z,6.40
2019-02-17T23:42:40.198Z,6.40
2019-02-17T23:45:12.937Z,6.40
2019-02-17T23:47:42.115Z,6.40
2019-02-17T23:50:12.878Z,6.60
2019-02-17T23:52:42.214Z,6.60
2019-02-17T23:55:11.942Z,6.60
2019-02-17T23:57:41.274Z,6.60
